Historique des mesures à Cassis (13260), France
Quotidien Résumé Mars 22, 2018 Unités:  Métrique    US   Métrique/US
« Précédent (Jour)
Suivant (Jour) »
Quotidien Hebdomadaire Mensuel Annuel Période au choix
  Maximum: Minimum: Moyenne:
Température: TemperatureC °C 4.4 °C 8 °C
Point de rosée: DewpointC °C -4.2 °C -3.1 °C
Humidité: Humidity % 31 % 43 %
Vitesse du vent: 0 km/h 4.2 km/h 16.4 km/h
Rafales: 0 km/h - -
Vent:- - West
Pression: PressurehPa hPa 1003.3 hPa -
Précipitations: 0.0 mm    
Historical Graphs
 
 
Mesures pour : Mars 22, 2018
Heure Temperature Point de rosée Pression Vent Vitesse du vent Rafales Humidité Pluie (par heure) Conditions
TemperatureC °C DewpointC °C PressurehPa hPa Calm     Humidity % HourlyPrecipMM mm SoftwareType W/m2
00:12 5.8 °C -1.9 °C 1014.8 hPa NW 5.1 km/h 19.2 km/h 58 % 0.0 mm open2300-1.11 W/m2
01:11 5.6 °C -2.6 °C 1014.8 hPa NNW 8 km/h 10.3 km/h 56 % 0.0 mm open2300-1.11 W/m2
02:11 5.6 °C -3.1 °C 1014.8 hPa NNW 4.2 km/h 10.3 km/h 54 % 0.0 mm open2300-1.11 W/m2
03:11 5.4 °C -3.2 °C 1014.1 hPa WNW 5.1 km/h 6.4 km/h 54 % 0.0 mm open2300-1.11 W/m2
04:11 5.2 °C -3.7 °C 1013.8 hPa NNE 7.6 km/h 7.6 km/h 53 % 0.0 mm open2300-1.11 W/m2
05:12 5.0 °C -3.8 °C 1013.4 hPa NNW 9.3 km/h 30.1 km/h 53 % 0.0 mm open2300-1.11 W/m2
06:12 4.6 °C -4.2 °C 1013.1 hPa NNW 16.9 km/h 16.9 km/h 53 % 0.0 mm open2300-1.11 W/m2
07:11 4.4 °C -4.2 °C 1012.8 hPa NW 12.7 km/h 15 km/h 54 % 0.0 mm open2300-1.11 W/m2
08:11 4.9 °C -3.4 °C 1012.8 hPa North 6.4 km/h 16.3 km/h 55 % 0.0 mm open2300-1.11 W/m2
09:11 6.1 °C -3.3 °C 1012.1 hPa WNW 30.1 km/h 30.1 km/h 51 % 0.0 mm open2300-1.11 W/m2
10:11 7.4 °C -2.7 °C 1011.7 hPa WSW 8 km/h 28.5 km/h 49 % 0.0 mm open2300-1.11 W/m2
11:12 9.1 °C -2.6 °C 1011.1 hPa West 30.7 km/h 30.7 km/h 44 % 0.0 mm open2300-1.11 W/m2
12:11 10.5 °C -1.9 °C 1010.0 hPa NW 4.7 km/h 14.5 km/h 42 % 0.0 mm open2300-1.11 W/m2
13:11 11.4 °C -2.1 °C 1009.0 hPa NW 15 km/h 15 km/h 39 % 0.0 mm open2300-1.11 W/m2
14:11 12.1 °C -1.9 °C 1007.7 hPa WNW 44.6 km/h 44.6 km/h 38 % 0.0 mm open2300-1.11 W/m2
15:11 12.4 °C -3.2 °C 1006.7 hPa North 23.8 km/h 49.7 km/h 34 % 0.0 mm open2300-1.11 W/m2
16:11 13.1 °C -3.3 °C 1005.6 hPa NNW 15 km/h 31.4 km/h 32 % 0.0 mm open2300-1.11 W/m2
17:11 13.1 °C -3.7 °C 1004.6 hPa NW 23.8 km/h 26.7 km/h 31 % 0.0 mm open2300-1.11 W/m2
18:12 11.6 °C -4.2 °C 1003.9 hPa NNW 19.6 km/h 22.5 km/h 33 % 0.0 mm open2300-1.11 W/m2
19:11 10.4 °C -4.2 °C 1003.9 hPa NNW 19.6 km/h 37 km/h 36 % 0.0 mm open2300-1.11 W/m2
20:11 9.6 °C -3.7 °C 1003.9 hPa WNW 41.7 km/h 41.7 km/h 39 % 0.0 mm open2300-1.11 W/m2
21:11 9.5 °C -3.4 °C 1003.6 hPa NW 14 km/h 30.7 km/h 40 % 0.0 mm open2300-1.11 W/m2
22:11 9.2 °C -3.1 °C 1003.6 hPa NNW 23.8 km/h 23.8 km/h 42 % 0.0 mm open2300-1.11 W/m2
23:12 8.6 °C -3.1 °C 1003.3 hPa NNE 19.6 km/h 19.6 km/h 44 % 0.0 mm open2300-1.11 W/m2
Observations météo à CASSIS
WU-History script by Weather Underground - 1 mb